sensor_id;sensor_type;location;lat;lon;timestamp;P1;durP1;ratioP1;P2;durP2;ratioP2
50858;SDS011;36826;47.514;19.056;2022-12-24T00:01:17;119.47;;;41.92;;
50858;SDS011;36826;47.514;19.056;2022-12-24T00:03:42;116.40;;;42.83;;
50858;SDS011;36826;47.514;19.056;2022-12-24T00:06:12;110.75;;;40.63;;
50858;SDS011;36826;47.514;19.056;2022-12-24T00:08:41;105.88;;;39.80;;
50858;SDS011;36826;47.514;19.056;2022-12-24T00:11:06;105.55;;;38.60;;
50858;SDS011;36826;47.514;19.056;2022-12-24T00:13:32;111.03;;;41.70;;
50858;SDS011;36826;47.514;19.056;2022-12-24T00:15:58;106.28;;;39.65;;
50858;SDS011;36826;47.514;19.056;2022-12-24T00:18:24;101.90;;;40.40;;
50858;SDS011;36826;47.514;19.056;2022-12-24T00:20:49;86.53;;;37.58;;
50858;SDS011;36826;47.514;19.056;2022-12-24T00:23:15;82.05;;;35.35;;
50858;SDS011;36826;47.514;19.056;2022-12-24T00:25:42;83.45;;;34.97;;
50858;SDS011;36826;47.514;19.056;2022-12-24T00:28:07;84.95;;;35.85;;
50858;SDS011;36826;47.514;19.056;2022-12-24T00:30:33;81.80;;;35.78;;
50858;SDS011;36826;47.514;19.056;2022-12-24T00:33:01;87.13;;;35.75;;
50858;SDS011;36826;47.514;19.056;2022-12-24T00:35:26;84.00;;;35.58;;
50858;SDS011;36826;47.514;19.056;2022-12-24T00:37:51;80.72;;;34.70;;
50858;SDS011;36826;47.514;19.056;2022-12-24T00:40:17;76.80;;;35.10;;
50858;SDS011;36826;47.514;19.056;2022-12-24T00:42:42;80.32;;;34.17;;
50858;SDS011;36826;47.514;19.056;2022-12-24T00:45:08;78.88;;;34.25;;
50858;SDS011;36826;47.514;19.056;2022-12-24T00:47:35;77.40;;;34.33;;
50858;SDS011;36826;47.514;19.056;2022-12-24T00:50:00;76.22;;;34.08;;
50858;SDS011;36826;47.514;19.056;2022-12-24T00:52:26;75.10;;;33.72;;
50858;SDS011;36826;47.514;19.056;2022-12-24T00:54:52;68.43;;;32.08;;
50858;SDS011;36826;47.514;19.056;2022-12-24T00:57:17;68.38;;;30.95;;
50858;SDS011;36826;47.514;19.056;2022-12-24T00:59:43;71.07;;;31.50;;
50858;SDS011;36826;47.514;19.056;2022-12-24T01:02:08;65.53;;;30.95;;
50858;SDS011;36826;47.514;19.056;2022-12-24T01:04:34;70.82;;;32.63;;
50858;SDS011;36826;47.514;19.056;2022-12-24T01:07:18;71.38;;;31.50;;
50858;SDS011;36826;47.514;19.056;2022-12-24T01:09:43;78.00;;;34.15;;
50858;SDS011;36826;47.514;19.056;2022-12-24T01:12:09;72.90;;;33.38;;
50858;SDS011;36826;47.514;19.056;2022-12-24T01:14:35;75.20;;;33.30;;
50858;SDS011;36826;47.514;19.056;2022-12-24T01:17:01;78.80;;;35.10;;
50858;SDS011;36826;47.514;19.056;2022-12-24T01:19:27;76.85;;;36.00;;
50858;SDS011;36826;47.514;19.056;2022-12-24T01:21:52;71.93;;;36.03;;
50858;SDS011;36826;47.514;19.056;2022-12-24T01:24:18;80.40;;;37.40;;
50858;SDS011;36826;47.514;19.056;2022-12-24T01:26:43;82.45;;;37.53;;
50858;SDS011;36826;47.514;19.056;2022-12-24T01:29:08;78.00;;;37.80;;
50858;SDS011;36826;47.514;19.056;2022-12-24T01:31:34;69.68;;;35.45;;
50858;SDS011;36826;47.514;19.056;2022-12-24T01:33:59;75.32;;;37.85;;
50858;SDS011;36826;47.514;19.056;2022-12-24T01:36:25;80.70;;;39.78;;
50858;SDS011;36826;47.514;19.056;2022-12-24T01:38:50;76.72;;;40.20;;
50858;SDS011;36826;47.514;19.056;2022-12-24T01:41:17;78.32;;;41.28;;
50858;SDS011;36826;47.514;19.056;2022-12-24T01:44:16;78.40;;;38.70;;
50858;SDS011;36826;47.514;19.056;2022-12-24T01:46:47;72.75;;;40.55;;
50858;SDS011;36826;47.514;19.056;2022-12-24T01:49:27;70.13;;;38.53;;
50858;SDS011;36826;47.514;19.056;2022-12-24T01:51:54;75.50;;;40.35;;
50858;SDS011;36826;47.514;19.056;2022-12-24T01:54:24;72.18;;;40.08;;
50858;SDS011;36826;47.514;19.056;2022-12-24T01:56:53;70.25;;;40.28;;
50858;SDS011;36826;47.514;19.056;2022-12-24T01:59:24;78.35;;;40.63;;
50858;SDS011;36826;47.514;19.056;2022-12-24T02:01:50;76.43;;;41.97;;
50858;SDS011;36826;47.514;19.056;2022-12-24T02:06:52;78.13;;;42.22;;
50858;SDS011;36826;47.514;19.056;2022-12-24T02:09:17;80.32;;;41.80;;
50858;SDS011;36826;47.514;19.056;2022-12-24T02:11:44;77.35;;;41.63;;
50858;SDS011;36826;47.514;19.056;2022-12-24T02:14:10;77.30;;;40.17;;
50858;SDS011;36826;47.514;19.056;2022-12-24T02:22:01;81.70;;;41.72;;
50858;SDS011;36826;47.514;19.056;2022-12-24T02:24:55;87.72;;;43.38;;
50858;SDS011;36826;47.514;19.056;2022-12-24T02:29:56;78.00;;;40.60;;
50858;SDS011;36826;47.514;19.056;2022-12-24T02:35:19;74.82;;;39.97;;
50858;SDS011;36826;47.514;19.056;2022-12-24T02:37:53;85.35;;;41.50;;
50858;SDS011;36826;47.514;19.056;2022-12-24T02:40:24;78.07;;;40.67;;
50858;SDS011;36826;47.514;19.056;2022-12-24T02:43:04;75.97;;;40.22;;
50858;SDS011;36826;47.514;19.056;2022-12-24T02:45:35;73.80;;;39.10;;
50858;SDS011;36826;47.514;19.056;2022-12-24T02:48:04;69.22;;;38.72;;
50858;SDS011;36826;47.514;19.056;2022-12-24T02:50:31;70.13;;;38.70;;
50858;SDS011;36826;47.514;19.056;2022-12-24T02:52:58;66.78;;;38.05;;
50858;SDS011;36826;47.514;19.056;2022-12-24T02:58:50;69.03;;;37.25;;
50858;SDS011;36826;47.514;19.056;2022-12-24T03:06:31;62.88;;;36.72;;
50858;SDS011;36826;47.514;19.056;2022-12-24T03:09:05;63.90;;;37.80;;
50858;SDS011;36826;47.514;19.056;2022-12-24T03:11:40;63.58;;;36.65;;
50858;SDS011;36826;47.514;19.056;2022-12-24T03:14:14;58.85;;;34.55;;
50858;SDS011;36826;47.514;19.056;2022-12-24T03:16:41;61.13;;;35.67;;
50858;SDS011;36826;47.514;19.056;2022-12-24T03:19:08;58.83;;;34.75;;
50858;SDS011;36826;47.514;19.056;2022-12-24T03:21:35;57.63;;;33.63;;
50858;SDS011;36826;47.514;19.056;2022-12-24T03:24:03;55.30;;;32.95;;
50858;SDS011;36826;47.514;19.056;2022-12-24T03:26:29;54.40;;;31.55;;
50858;SDS011;36826;47.514;19.056;2022-12-24T03:28:57;56.97;;;34.10;;
50858;SDS011;36826;47.514;19.056;2022-12-24T03:31:22;56.83;;;32.92;;
50858;SDS011;36826;47.514;19.056;2022-12-24T03:33:48;56.78;;;33.88;;
50858;SDS011;36826;47.514;19.056;2022-12-24T03:36:14;56.17;;;33.30;;
50858;SDS011;36826;47.514;19.056;2022-12-24T03:38:40;55.58;;;33.25;;
50858;SDS011;36826;47.514;19.056;2022-12-24T03:41:06;50.75;;;33.25;;
50858;SDS011;36826;47.514;19.056;2022-12-24T03:43:32;54.75;;;32.95;;
50858;SDS011;36826;47.514;19.056;2022-12-24T03:45:58;57.42;;;35.33;;
50858;SDS011;36826;47.514;19.056;2022-12-24T03:48:30;53.72;;;34.15;;
50858;SDS011;36826;47.514;19.056;2022-12-24T03:50:58;56.63;;;35.25;;
50858;SDS011;36826;47.514;19.056;2022-12-24T03:53:23;58.15;;;35.50;;
50858;SDS011;36826;47.514;19.056;2022-12-24T03:55:48;51.80;;;33.75;;
50858;SDS011;36826;47.514;19.056;2022-12-24T03:58:14;53.85;;;34.13;;
50858;SDS011;36826;47.514;19.056;2022-12-24T04:00:39;55.97;;;35.95;;
50858;SDS011;36826;47.514;19.056;2022-12-24T04:03:05;56.92;;;34.95;;
50858;SDS011;36826;47.514;19.056;2022-12-24T04:05:30;53.67;;;33.53;;
50858;SDS011;36826;47.514;19.056;2022-12-24T04:07:55;50.75;;;32.58;;
50858;SDS011;36826;47.514;19.056;2022-12-24T04:10:21;50.88;;;33.35;;
50858;SDS011;36826;47.514;19.056;2022-12-24T04:12:46;55.05;;;34.88;;
50858;SDS011;36826;47.514;19.056;2022-12-24T04:15:12;53.40;;;34.20;;
50858;SDS011;36826;47.514;19.056;2022-12-24T04:17:37;51.90;;;33.97;;
50858;SDS011;36826;47.514;19.056;2022-12-24T04:20:03;49.75;;;32.78;;
50858;SDS011;36826;47.514;19.056;2022-12-24T04:22:28;48.15;;;31.48;;
50858;SDS011;36826;47.514;19.056;2022-12-24T04:24:54;47.60;;;31.63;;
50858;SDS011;36826;47.514;19.056;2022-12-24T04:27:19;47.30;;;32.30;;
50858;SDS011;36826;47.514;19.056;2022-12-24T04:29:45;45.70;;;31.30;;
50858;SDS011;36826;47.514;19.056;2022-12-24T04:32:10;43.97;;;29.98;;
50858;SDS011;36826;47.514;19.056;2022-12-24T04:34:36;44.63;;;30.95;;
50858;SDS011;36826;47.514;19.056;2022-12-24T04:37:01;48.33;;;31.60;;
50858;SDS011;36826;47.514;19.056;2022-12-24T04:39:28;47.72;;;31.23;;
50858;SDS011;36826;47.514;19.056;2022-12-24T04:41:53;47.90;;;31.88;;
50858;SDS011;36826;47.514;19.056;2022-12-24T04:44:19;46.50;;;30.50;;
50858;SDS011;36826;47.514;19.056;2022-12-24T04:46:44;41.30;;;29.23;;
50858;SDS011;36826;47.514;19.056;2022-12-24T04:49:09;43.80;;;29.88;;
50858;SDS011;36826;47.514;19.056;2022-12-24T04:51:35;42.53;;;28.48;;
50858;SDS011;36826;47.514;19.056;2022-12-24T04:54:01;40.85;;;28.63;;
50858;SDS011;36826;47.514;19.056;2022-12-24T04:56:28;44.50;;;29.38;;
50858;SDS011;36826;47.514;19.056;2022-12-24T05:01:22;40.70;;;26.40;;
50858;SDS011;36826;47.514;19.056;2022-12-24T05:03:50;36.47;;;25.92;;
50858;SDS011;36826;47.514;19.056;2022-12-24T05:06:20;40.25;;;27.23;;
50858;SDS011;36826;47.514;19.056;2022-12-24T05:08:47;37.13;;;25.77;;
50858;SDS011;36826;47.514;19.056;2022-12-24T05:11:12;39.17;;;27.67;;
50858;SDS011;36826;47.514;19.056;2022-12-24T05:13:40;34.85;;;25.27;;
50858;SDS011;36826;47.514;19.056;2022-12-24T05:16:07;33.95;;;24.25;;
50858;SDS011;36826;47.514;19.056;2022-12-24T05:18:33;34.58;;;24.25;;
50858;SDS011;36826;47.514;19.056;2022-12-24T05:20:59;36.53;;;24.48;;
50858;SDS011;36826;47.514;19.056;2022-12-24T05:23:24;32.35;;;22.55;;
50858;SDS011;36826;47.514;19.056;2022-12-24T05:26:22;30.92;;;21.73;;
50858;SDS011;36826;47.514;19.056;2022-12-24T05:29:08;31.75;;;22.63;;
50858;SDS011;36826;47.514;19.056;2022-12-24T05:31:36;31.88;;;23.08;;
50858;SDS011;36826;47.514;19.056;2022-12-24T05:34:04;35.33;;;24.90;;
50858;SDS011;36826;47.514;19.056;2022-12-24T05:36:30;34.70;;;24.60;;
50858;SDS011;36826;47.514;19.056;2022-12-24T05:38:55;32.83;;;22.85;;
50858;SDS011;36826;47.514;19.056;2022-12-24T05:41:23;32.03;;;22.65;;
50858;SDS011;36826;47.514;19.056;2022-12-24T05:43:49;33.08;;;23.73;;
50858;SDS011;36826;47.514;19.056;2022-12-24T05:46:15;30.13;;;21.63;;
50858;SDS011;36826;47.514;19.056;2022-12-24T05:48:45;35.78;;;24.52;;
50858;SDS011;36826;47.514;19.056;2022-12-24T05:51:12;34.42;;;24.98;;
50858;SDS011;36826;47.514;19.056;2022-12-24T05:53:38;32.95;;;24.17;;
50858;SDS011;36826;47.514;19.056;2022-12-24T05:56:05;32.55;;;24.30;;
50858;SDS011;36826;47.514;19.056;2022-12-24T05:58:32;32.78;;;23.45;;
50858;SDS011;36826;47.514;19.056;2022-12-24T06:00:58;31.60;;;22.13;;
50858;SDS011;36826;47.514;19.056;2022-12-24T06:03:25;30.23;;;22.23;;
50858;SDS011;36826;47.514;19.056;2022-12-24T06:06:00;30.10;;;23.00;;
50858;SDS011;36826;47.514;19.056;2022-12-24T06:08:26;37.47;;;25.42;;
50858;SDS011;36826;47.514;19.056;2022-12-24T06:10:54;33.03;;;22.48;;
50858;SDS011;36826;47.514;19.056;2022-12-24T06:13:23;35.22;;;24.52;;
50858;SDS011;36826;47.514;19.056;2022-12-24T06:15:49;36.97;;;26.38;;
50858;SDS011;36826;47.514;19.056;2022-12-24T06:18:15;34.72;;;25.02;;
50858;SDS011;36826;47.514;19.056;2022-12-24T06:20:41;31.83;;;23.85;;
50858;SDS011;36826;47.514;19.056;2022-12-24T06:23:06;33.83;;;22.98;;
50858;SDS011;36826;47.514;19.056;2022-12-24T06:25:32;33.60;;;23.77;;
50858;SDS011;36826;47.514;19.056;2022-12-24T06:27:58;29.20;;;21.20;;
50858;SDS011;36826;47.514;19.056;2022-12-24T06:30:23;24.33;;;17.42;;
50858;SDS011;36826;47.514;19.056;2022-12-24T06:32:49;21.80;;;16.27;;
50858;SDS011;36826;47.514;19.056;2022-12-24T06:35:14;27.52;;;17.20;;
50858;SDS011;36826;47.514;19.056;2022-12-24T06:37:40;26.02;;;19.15;;
50858;SDS011;36826;47.514;19.056;2022-12-24T06:40:05;21.52;;;15.23;;
50858;SDS011;36826;47.514;19.056;2022-12-24T06:42:31;22.70;;;15.93;;
50858;SDS011;36826;47.514;19.056;2022-12-24T06:44:56;22.67;;;16.90;;
50858;SDS011;36826;47.514;19.056;2022-12-24T06:47:22;18.17;;;13.13;;
50858;SDS011;36826;47.514;19.056;2022-12-24T06:49:47;18.17;;;12.45;;
50858;SDS011;36826;47.514;19.056;2022-12-24T06:52:13;17.67;;;11.25;;
50858;SDS011;36826;47.514;19.056;2022-12-24T06:54:38;12.82;;;9.05;;
50858;SDS011;36826;47.514;19.056;2022-12-24T06:57:04;11.25;;;7.50;;
50858;SDS011;36826;47.514;19.056;2022-12-24T06:59:30;11.15;;;7.38;;
50858;SDS011;36826;47.514;19.056;2022-12-24T07:01:56;10.07;;;7.72;;
50858;SDS011;36826;47.514;19.056;2022-12-24T07:04:21;12.00;;;8.65;;
50858;SDS011;36826;47.514;19.056;2022-12-24T07:06:47;9.50;;;6.70;;
50858;SDS011;36826;47.514;19.056;2022-12-24T07:09:12;9.05;;;6.57;;
50858;SDS011;36826;47.514;19.056;2022-12-24T07:11:38;7.72;;;5.40;;
50858;SDS011;36826;47.514;19.056;2022-12-24T07:14:04;8.73;;;6.30;;
50858;SDS011;36826;47.514;19.056;2022-12-24T07:16:29;15.70;;;9.93;;
50858;SDS011;36826;47.514;19.056;2022-12-24T07:18:56;16.77;;;11.05;;
50858;SDS011;36826;47.514;19.056;2022-12-24T07:21:21;20.02;;;12.98;;
50858;SDS011;36826;47.514;19.056;2022-12-24T07:23:47;19.80;;;14.30;;
50858;SDS011;36826;47.514;19.056;2022-12-24T07:26:12;19.02;;;14.73;;
50858;SDS011;36826;47.514;19.056;2022-12-24T07:28:37;23.48;;;15.93;;
50858;SDS011;36826;47.514;19.056;2022-12-24T07:31:03;25.50;;;16.98;;
50858;SDS011;36826;47.514;19.056;2022-12-24T07:33:28;24.40;;;16.17;;
50858;SDS011;36826;47.514;19.056;2022-12-24T07:35:57;23.45;;;17.30;;
50858;SDS011;36826;47.514;19.056;2022-12-24T07:38:24;21.90;;;15.52;;
50858;SDS011;36826;47.514;19.056;2022-12-24T07:40:51;19.23;;;12.70;;
50858;SDS011;36826;47.514;19.056;2022-12-24T07:43:16;22.15;;;14.82;;
50858;SDS011;36826;47.514;19.056;2022-12-24T07:45:41;16.00;;;11.88;;
50858;SDS011;36826;47.514;19.056;2022-12-24T07:48:07;20.45;;;13.68;;
50858;SDS011;36826;47.514;19.056;2022-12-24T07:50:33;15.45;;;10.95;;
50858;SDS011;36826;47.514;19.056;2022-12-24T07:52:59;16.52;;;12.07;;
50858;SDS011;36826;47.514;19.056;2022-12-24T07:55:24;15.30;;;11.02;;
50858;SDS011;36826;47.514;19.056;2022-12-24T07:57:49;17.10;;;12.05;;
50858;SDS011;36826;47.514;19.056;2022-12-24T08:00:15;15.88;;;11.40;;
50858;SDS011;36826;47.514;19.056;2022-12-24T08:02:41;15.00;;;11.10;;
50858;SDS011;36826;47.514;19.056;2022-12-24T08:05:06;17.38;;;12.18;;
50858;SDS011;36826;47.514;19.056;2022-12-24T08:07:32;12.93;;;10.23;;
50858;SDS011;36826;47.514;19.056;2022-12-24T08:09:58;15.60;;;11.32;;
50858;SDS011;36826;47.514;19.056;2022-12-24T08:12:23;18.38;;;11.70;;
50858;SDS011;36826;47.514;19.056;2022-12-24T08:14:49;18.63;;;13.50;;
50858;SDS011;36826;47.514;19.056;2022-12-24T08:17:14;19.70;;;14.57;;
50858;SDS011;36826;47.514;19.056;2022-12-24T08:19:39;20.17;;;14.57;;
50858;SDS011;36826;47.514;19.056;2022-12-24T08:22:05;16.80;;;12.50;;
50858;SDS011;36826;47.514;19.056;2022-12-24T08:24:30;17.02;;;11.70;;
50858;SDS011;36826;47.514;19.056;2022-12-24T08:26:56;16.75;;;12.57;;
50858;SDS011;36826;47.514;19.056;2022-12-24T08:29:22;16.13;;;11.43;;
50858;SDS011;36826;47.514;19.056;2022-12-24T08:31:47;17.38;;;13.80;;
50858;SDS011;36826;47.514;19.056;2022-12-24T08:34:13;18.30;;;13.13;;
50858;SDS011;36826;47.514;19.056;2022-12-24T08:36:38;13.15;;;10.20;;
50858;SDS011;36826;47.514;19.056;2022-12-24T08:39:04;16.20;;;12.35;;
50858;SDS011;36826;47.514;19.056;2022-12-24T08:41:32;26.38;;;16.83;;
50858;SDS011;36826;47.514;19.056;2022-12-24T08:43:57;18.58;;;12.82;;
50858;SDS011;36826;47.514;19.056;2022-12-24T08:46:23;21.90;;;13.68;;
50858;SDS011;36826;47.514;19.056;2022-12-24T08:48:48;17.02;;;12.23;;
50858;SDS011;36826;47.514;19.056;2022-12-24T08:51:14;12.75;;;9.65;;
50858;SDS011;36826;47.514;19.056;2022-12-24T08:53:39;17.83;;;12.75;;
50858;SDS011;36826;47.514;19.056;2022-12-24T08:56:06;18.60;;;12.25;;
50858;SDS011;36826;47.514;19.056;2022-12-24T08:58:33;22.55;;;14.10;;
50858;SDS011;36826;47.514;19.056;2022-12-24T09:00:59;14.30;;;10.23;;
50858;SDS011;36826;47.514;19.056;2022-12-24T09:03:25;15.45;;;10.82;;
50858;SDS011;36826;47.514;19.056;2022-12-24T09:05:51;13.20;;;8.55;;
50858;SDS011;36826;47.514;19.056;2022-12-24T09:08:19;10.18;;;7.20;;
50858;SDS011;36826;47.514;19.056;2022-12-24T09:10:45;12.10;;;8.43;;
50858;SDS011;36826;47.514;19.056;2022-12-24T09:13:10;11.85;;;7.78;;
50858;SDS011;36826;47.514;19.056;2022-12-24T09:15:36;14.32;;;9.60;;
50858;SDS011;36826;47.514;19.056;2022-12-24T09:18:01;13.85;;;9.82;;
50858;SDS011;36826;47.514;19.056;2022-12-24T09:20:27;12.63;;;8.82;;
50858;SDS011;36826;47.514;19.056;2022-12-24T09:22:52;10.88;;;7.10;;
50858;SDS011;36826;47.514;19.056;2022-12-24T09:25:18;10.18;;;7.07;;
50858;SDS011;36826;47.514;19.056;2022-12-24T09:27:43;7.68;;;5.20;;
50858;SDS011;36826;47.514;19.056;2022-12-24T09:30:09;8.43;;;5.47;;
50858;SDS011;36826;47.514;19.056;2022-12-24T09:32:35;7.82;;;5.65;;
50858;SDS011;36826;47.514;19.056;2022-12-24T09:35:00;11.27;;;7.15;;
50858;SDS011;36826;47.514;19.056;2022-12-24T09:37:26;8.48;;;5.28;;
50858;SDS011;36826;47.514;19.056;2022-12-24T09:39:51;6.38;;;4.70;;
50858;SDS011;36826;47.514;19.056;2022-12-24T09:42:27;10.63;;;6.22;;
50858;SDS011;36826;47.514;19.056;2022-12-24T09:45:58;6.80;;;5.15;;
50858;SDS011;36826;47.514;19.056;2022-12-24T09:47:58;9.27;;;4.55;;
50858;SDS011;36826;47.514;19.056;2022-12-24T09:50:37;5.00;;;3.83;;
50858;SDS011;36826;47.514;19.056;2022-12-24T09:53:17;8.80;;;5.05;;
50858;SDS011;36826;47.514;19.056;2022-12-24T09:55:45;7.07;;;5.28;;
50858;SDS011;36826;47.514;19.056;2022-12-24T09:58:32;8.32;;;5.45;;
50858;SDS011;36826;47.514;19.056;2022-12-24T10:01:01;6.38;;;4.28;;
50858;SDS011;36826;47.514;19.056;2022-12-24T10:03:27;4.18;;;2.65;;
50858;SDS011;36826;47.514;19.056;2022-12-24T10:06:02;5.53;;;2.20;;
50858;SDS011;36826;47.514;19.056;2022-12-24T10:08:45;4.70;;;2.30;;
50858;SDS011;36826;47.514;19.056;2022-12-24T10:11:29;3.85;;;1.60;;
50858;SDS011;36826;47.514;19.056;2022-12-24T10:16:50;3.05;;;1.30;;
50858;SDS011;36826;47.514;19.056;2022-12-24T10:19:49;3.00;;;1.60;;
50858;SDS011;36826;47.514;19.056;2022-12-24T10:22:26;3.53;;;1.50;;
50858;SDS011;36826;47.514;19.056;2022-12-24T10:28:06;3.75;;;0.90;;
50858;SDS011;36826;47.514;19.056;2022-12-24T10:30:39;2.00;;;0.70;;
50858;SDS011;36826;47.514;19.056;2022-12-24T10:33:13;2.33;;;0.80;;
50858;SDS011;36826;47.514;19.056;2022-12-24T10:35:45;2.45;;;0.80;;
50858;SDS011;36826;47.514;19.056;2022-12-24T10:38:14;2.08;;;0.93;;
50858;SDS011;36826;47.514;19.056;2022-12-24T10:40:41;3.17;;;0.70;;
50858;SDS011;36826;47.514;19.056;2022-12-24T10:43:13;3.10;;;0.50;;
50858;SDS011;36826;47.514;19.056;2022-12-24T10:45:41;2.50;;;0.40;;
50858;SDS011;36826;47.514;19.056;2022-12-24T10:48:12;2.17;;;0.52;;
50858;SDS011;36826;47.514;19.056;2022-12-24T10:50:53;2.33;;;0.55;;
50858;SDS011;36826;47.514;19.056;2022-12-24T10:54:05;2.90;;;0.70;;
50858;SDS011;36826;47.514;19.056;2022-12-24T10:56:18;2.60;;;0.47;;
50858;SDS011;36826;47.514;19.056;2022-12-24T10:58:46;3.15;;;0.40;;
50858;SDS011;36826;47.514;19.056;2022-12-24T11:01:17;3.70;;;0.57;;
50858;SDS011;36826;47.514;19.056;2022-12-24T11:03:43;2.88;;;0.60;;
50858;SDS011;36826;47.514;19.056;2022-12-24T11:06:10;2.00;;;0.47;;
50858;SDS011;36826;47.514;19.056;2022-12-24T11:08:38;2.05;;;0.50;;
50858;SDS011;36826;47.514;19.056;2022-12-24T11:11:07;2.13;;;0.40;;
50858;SDS011;36826;47.514;19.056;2022-12-24T11:13:37;3.13;;;0.43;;
50858;SDS011;36826;47.514;19.056;2022-12-24T11:18:48;4.22;;;0.60;;
50858;SDS011;36826;47.514;19.056;2022-12-24T11:21:19;2.72;;;0.70;;
50858;SDS011;36826;47.514;19.056;2022-12-24T11:23:54;2.60;;;0.50;;
50858;SDS011;36826;47.514;19.056;2022-12-24T11:26:23;1.77;;;0.45;;
50858;SDS011;36826;47.514;19.056;2022-12-24T11:29:11;3.80;;;0.70;;
50858;SDS011;36826;47.514;19.056;2022-12-24T11:31:37;3.20;;;0.67;;
50858;SDS011;36826;47.514;19.056;2022-12-24T11:40:05;2.95;;;0.30;;
50858;SDS011;36826;47.514;19.056;2022-12-24T11:42:46;2.20;;;0.30;;
50858;SDS011;36826;47.514;19.056;2022-12-24T11:47:50;2.63;;;0.30;;
50858;SDS011;36826;47.514;19.056;2022-12-24T11:50:29;3.00;;;0.30;;
50858;SDS011;36826;47.514;19.056;2022-12-24T11:58:01;3.40;;;0.40;;
50858;SDS011;36826;47.514;19.056;2022-12-24T12:00:39;4.82;;;0.40;;
50858;SDS011;36826;47.514;19.056;2022-12-24T12:03:08;4.45;;;0.40;;
50858;SDS011;36826;47.514;19.056;2022-12-24T12:05:48;4.55;;;0.30;;
50858;SDS011;36826;47.514;19.056;2022-12-24T12:08:19;4.40;;;1.17;;
50858;SDS011;36826;47.514;19.056;2022-12-24T12:10:46;4.90;;;1.65;;
50858;SDS011;36826;47.514;19.056;2022-12-24T12:13:14;3.45;;;0.60;;
50858;SDS011;36826;47.514;19.056;2022-12-24T12:18:35;2.30;;;0.80;;
50858;SDS011;36826;47.514;19.056;2022-12-24T12:21:13;5.53;;;1.42;;
50858;SDS011;36826;47.514;19.056;2022-12-24T12:23:44;5.32;;;1.70;;
50858;SDS011;36826;47.514;19.056;2022-12-24T12:28:53;3.90;;;0.35;;
50858;SDS011;36826;47.514;19.056;2022-12-24T12:36:31;5.90;;;0.82;;
50858;SDS011;36826;47.514;19.056;2022-12-24T12:39:03;3.88;;;0.45;;
50858;SDS011;36826;47.514;19.056;2022-12-24T12:41:46;3.15;;;0.30;;
50858;SDS011;36826;47.514;19.056;2022-12-24T12:53:14;3.05;;;0.30;;
50858;SDS011;36826;47.514;19.056;2022-12-24T13:01:38;3.47;;;1.20;;
50858;SDS011;36826;47.514;19.056;2022-12-24T13:12:46;5.13;;;0.40;;
50858;SDS011;36826;47.514;19.056;2022-12-24T13:15:32;3.50;;;0.20;;
50858;SDS011;36826;47.514;19.056;2022-12-24T13:20:50;2.55;;;0.28;;
50858;SDS011;36826;47.514;19.056;2022-12-24T13:23:20;3.80;;;0.40;;
50858;SDS011;36826;47.514;19.056;2022-12-24T13:26:08;3.03;;;0.50;;
50858;SDS011;36826;47.514;19.056;2022-12-24T13:28:37;2.17;;;0.20;;
50858;SDS011;36826;47.514;19.056;2022-12-24T13:36:13;4.03;;;1.05;;
50858;SDS011;36826;47.514;19.056;2022-12-24T13:49:20;4.75;;;0.60;;
50858;SDS011;36826;47.514;19.056;2022-12-24T13:52:03;1.90;;;0.30;;
50858;SDS011;36826;47.514;19.056;2022-12-24T13:57:24;5.53;;;2.38;;
50858;SDS011;36826;47.514;19.056;2022-12-24T14:00:03;3.72;;;0.80;;
50858;SDS011;36826;47.514;19.056;2022-12-24T14:02:34;2.72;;;0.60;;
50858;SDS011;36826;47.514;19.056;2022-12-24T14:05:15;2.58;;;0.40;;
50858;SDS011;36826;47.514;19.056;2022-12-24T14:07:46;3.58;;;0.30;;
50858;SDS011;36826;47.514;19.056;2022-12-24T14:10:20;3.77;;;0.30;;
50858;SDS011;36826;47.514;19.056;2022-12-24T14:12:51;3.28;;;0.50;;
50858;SDS011;36826;47.514;19.056;2022-12-24T14:18:23;3.45;;;0.50;;
50858;SDS011;36826;47.514;19.056;2022-12-24T14:20:49;3.67;;;0.65;;
50858;SDS011;36826;47.514;19.056;2022-12-24T14:26:19;3.75;;;0.40;;
50858;SDS011;36826;47.514;19.056;2022-12-24T14:31:24;2.53;;;0.40;;
50858;SDS011;36826;47.514;19.056;2022-12-24T14:33:50;2.45;;;0.70;;
50858;SDS011;36826;47.514;19.056;2022-12-24T14:36:20;3.42;;;0.80;;
50858;SDS011;36826;47.514;19.056;2022-12-24T14:38:47;4.43;;;0.70;;
50858;SDS011;36826;47.514;19.056;2022-12-24T14:41:17;3.55;;;0.40;;
50858;SDS011;36826;47.514;19.056;2022-12-24T14:43:48;2.90;;;0.50;;
50858;SDS011;36826;47.514;19.056;2022-12-24T14:54:35;2.15;;;0.30;;
50858;SDS011;36826;47.514;19.056;2022-12-24T15:07:40;3.05;;;0.50;;
50858;SDS011;36826;47.514;19.056;2022-12-24T15:10:21;2.38;;;0.45;;
50858;SDS011;36826;47.514;19.056;2022-12-24T15:13:05;3.22;;;0.50;;
50858;SDS011;36826;47.514;19.056;2022-12-24T15:15:33;4.32;;;0.40;;
50858;SDS011;36826;47.514;19.056;2022-12-24T15:17:59;2.63;;;0.70;;
50858;SDS011;36826;47.514;19.056;2022-12-24T15:20:28;3.22;;;0.85;;
50858;SDS011;36826;47.514;19.056;2022-12-24T15:22:55;3.13;;;1.05;;
50858;SDS011;36826;47.514;19.056;2022-12-24T15:25:23;3.83;;;0.60;;
50858;SDS011;36826;47.514;19.056;2022-12-24T15:27:51;6.50;;;1.10;;
50858;SDS011;36826;47.514;19.056;2022-12-24T15:30:18;3.20;;;0.30;;
50858;SDS011;36826;47.514;19.056;2022-12-24T15:32:46;3.22;;;0.57;;
50858;SDS011;36826;47.514;19.056;2022-12-24T15:37:56;4.75;;;0.90;;
50858;SDS011;36826;47.514;19.056;2022-12-24T15:40:23;3.53;;;0.57;;
50858;SDS011;36826;47.514;19.056;2022-12-24T15:42:49;7.82;;;2.60;;
50858;SDS011;36826;47.514;19.056;2022-12-24T15:45:16;4.32;;;1.27;;
50858;SDS011;36826;47.514;19.056;2022-12-24T15:48:07;4.40;;;0.50;;
50858;SDS011;36826;47.514;19.056;2022-12-24T15:50:35;2.65;;;1.02;;
50858;SDS011;36826;47.514;19.056;2022-12-24T15:53:11;2.97;;;1.05;;
50858;SDS011;36826;47.514;19.056;2022-12-24T15:55:45;5.13;;;1.30;;
50858;SDS011;36826;47.514;19.056;2022-12-24T15:58:24;3.30;;;0.55;;
50858;SDS011;36826;47.514;19.056;2022-12-24T16:06:15;4.28;;;0.80;;
50858;SDS011;36826;47.514;19.056;2022-12-24T16:08:41;3.60;;;0.77;;
50858;SDS011;36826;47.514;19.056;2022-12-24T16:11:18;3.80;;;0.82;;
50858;SDS011;36826;47.514;19.056;2022-12-24T16:16:32;4.40;;;0.60;;
50858;SDS011;36826;47.514;19.056;2022-12-24T16:19:17;6.07;;;1.00;;
50858;SDS011;36826;47.514;19.056;2022-12-24T16:21:48;3.75;;;1.30;;
50858;SDS011;36826;47.514;19.056;2022-12-24T16:24:18;6.70;;;2.45;;
50858;SDS011;36826;47.514;19.056;2022-12-24T16:26:54;6.95;;;1.10;;
50858;SDS011;36826;47.514;19.056;2022-12-24T16:29:21;5.47;;;0.75;;
50858;SDS011;36826;47.514;19.056;2022-12-24T16:34:19;5.40;;;0.80;;
50858;SDS011;36826;47.514;19.056;2022-12-24T16:36:49;3.83;;;0.95;;
50858;SDS011;36826;47.514;19.056;2022-12-24T16:39:16;4.53;;;1.10;;
50858;SDS011;36826;47.514;19.056;2022-12-24T16:41:47;6.00;;;1.10;;
50858;SDS011;36826;47.514;19.056;2022-12-24T16:44:31;3.50;;;0.95;;
50858;SDS011;36826;47.514;19.056;2022-12-24T16:46:57;9.45;;;1.20;;
50858;SDS011;36826;47.514;19.056;2022-12-24T16:49:24;7.17;;;1.23;;
50858;SDS011;36826;47.514;19.056;2022-12-24T16:51:50;5.40;;;1.60;;